sensor_id;sensor_type;location;lat;lon;timestamp;P1;durP1;ratioP1;P2;durP2;ratioP2
62149;SDS011;48134;53.586;10.610;2022-10-16T00:01:18;6.60;;;3.58;;
62149;SDS011;48134;53.586;10.610;2022-10-16T00:03:51;6.88;;;3.88;;
62149;SDS011;48134;53.586;10.610;2022-10-16T00:06:24;6.10;;;3.60;;
62149;SDS011;48134;53.586;10.610;2022-10-16T00:08:58;7.38;;;3.92;;
62149;SDS011;48134;53.586;10.610;2022-10-16T00:11:33;7.57;;;3.47;;
62149;SDS011;48134;53.586;10.610;2022-10-16T00:14:04;5.97;;;3.30;;
62149;SDS011;48134;53.586;10.610;2022-10-16T00:16:37;7.80;;;3.75;;
62149;SDS011;48134;53.586;10.610;2022-10-16T00:19:10;5.05;;;3.25;;
62149;SDS011;48134;53.586;10.610;2022-10-16T00:21:43;5.78;;;3.67;;
62149;SDS011;48134;53.586;10.610;2022-10-16T00:24:16;11.90;;;3.63;;
62149;SDS011;48134;53.586;10.610;2022-10-16T00:26:51;6.63;;;3.67;;
62149;SDS011;48134;53.586;10.610;2022-10-16T00:29:23;5.90;;;3.42;;
62149;SDS011;48134;53.586;10.610;2022-10-16T00:31:51;6.47;;;3.47;;
62149;SDS011;48134;53.586;10.610;2022-10-16T00:34:24;5.60;;;2.97;;
62149;SDS011;48134;53.586;10.610;2022-10-16T00:36:57;5.88;;;3.30;;
62149;SDS011;48134;53.586;10.610;2022-10-16T00:39:30;5.70;;;3.38;;
62149;SDS011;48134;53.586;10.610;2022-10-16T00:42:04;5.35;;;2.97;;
62149;SDS011;48134;53.586;10.610;2022-10-16T00:44:41;7.22;;;3.40;;
62149;SDS011;48134;53.586;10.610;2022-10-16T00:47:15;7.20;;;3.10;;
62149;SDS011;48134;53.586;10.610;2022-10-16T00:49:50;5.00;;;3.05;;
62149;SDS011;48134;53.586;10.610;2022-10-16T00:52:19;4.20;;;2.72;;
62149;SDS011;48134;53.586;10.610;2022-10-16T00:54:46;9.00;;;3.20;;
62149;SDS011;48134;53.586;10.610;2022-10-16T00:57:16;5.72;;;3.10;;
62149;SDS011;48134;53.586;10.610;2022-10-16T00:59:44;5.72;;;3.25;;
62149;SDS011;48134;53.586;10.610;2022-10-16T01:02:17;6.80;;;2.85;;
62149;SDS011;48134;53.586;10.610;2022-10-16T01:04:46;4.30;;;2.83;;
62149;SDS011;48134;53.586;10.610;2022-10-16T01:07:23;4.93;;;2.60;;
62149;SDS011;48134;53.586;10.610;2022-10-16T01:12:28;5.38;;;3.10;;
62149;SDS011;48134;53.586;10.610;2022-10-16T01:15:07;4.38;;;2.83;;
62149;SDS011;48134;53.586;10.610;2022-10-16T01:17:42;4.63;;;2.88;;
62149;SDS011;48134;53.586;10.610;2022-10-16T01:20:19;4.32;;;2.88;;
62149;SDS011;48134;53.586;10.610;2022-10-16T01:25:23;7.07;;;2.65;;
62149;SDS011;48134;53.586;10.610;2022-10-16T01:27:54;4.82;;;2.72;;
62149;SDS011;48134;53.586;10.610;2022-10-16T01:30:27;4.63;;;2.53;;
62149;SDS011;48134;53.586;10.610;2022-10-16T01:33:04;7.53;;;3.03;;
62149;SDS011;48134;53.586;10.610;2022-10-16T01:35:36;7.25;;;2.83;;
62149;SDS011;48134;53.586;10.610;2022-10-16T01:38:10;3.83;;;2.50;;
62149;SDS011;48134;53.586;10.610;2022-10-16T01:40:41;4.35;;;2.58;;
62149;SDS011;48134;53.586;10.610;2022-10-16T01:43:19;5.07;;;2.72;;
62149;SDS011;48134;53.586;10.610;2022-10-16T01:45:52;6.32;;;2.53;;
62149;SDS011;48134;53.586;10.610;2022-10-16T01:48:21;5.47;;;2.88;;
62149;SDS011;48134;53.586;10.610;2022-10-16T01:50:52;6.63;;;3.08;;
62149;SDS011;48134;53.586;10.610;2022-10-16T01:53:21;6.70;;;2.88;;
62149;SDS011;48134;53.586;10.610;2022-10-16T01:55:54;4.78;;;2.90;;
62149;SDS011;48134;53.586;10.610;2022-10-16T01:58:24;6.05;;;2.78;;
62149;SDS011;48134;53.586;10.610;2022-10-16T02:00:57;5.47;;;2.42;;
62149;SDS011;48134;53.586;10.610;2022-10-16T02:03:30;5.32;;;2.33;;
62149;SDS011;48134;53.586;10.610;2022-10-16T02:05:59;3.92;;;2.15;;
62149;SDS011;48134;53.586;10.610;2022-10-16T02:08:32;4.78;;;2.38;;
62149;SDS011;48134;53.586;10.610;2022-10-16T02:11:04;5.03;;;2.05;;
62149;SDS011;48134;53.586;10.610;2022-10-16T02:13:40;3.03;;;2.03;;
62149;SDS011;48134;53.586;10.610;2022-10-16T02:16:11;4.18;;;2.22;;
62149;SDS011;48134;53.586;10.610;2022-10-16T02:18:44;5.10;;;2.30;;
62149;SDS011;48134;53.586;10.610;2022-10-16T02:21:19;5.70;;;2.13;;
62149;SDS011;48134;53.586;10.610;2022-10-16T02:23:54;6.82;;;2.30;;
62149;SDS011;48134;53.586;10.610;2022-10-16T02:26:30;4.72;;;1.90;;
62149;SDS011;48134;53.586;10.610;2022-10-16T02:29:04;3.30;;;2.03;;
62149;SDS011;48134;53.586;10.610;2022-10-16T02:31:34;2.40;;;1.73;;
62149;SDS011;48134;53.586;10.610;2022-10-16T02:34:08;7.45;;;1.92;;
62149;SDS011;48134;53.586;10.610;2022-10-16T02:36:38;3.80;;;1.98;;
62149;SDS011;48134;53.586;10.610;2022-10-16T02:39:06;4.10;;;1.45;;
62149;SDS011;48134;53.586;10.610;2022-10-16T02:41:39;3.95;;;1.60;;
62149;SDS011;48134;53.586;10.610;2022-10-16T02:44:13;5.03;;;1.70;;
62149;SDS011;48134;53.586;10.610;2022-10-16T02:46:46;2.65;;;1.65;;
62149;SDS011;48134;53.586;10.610;2022-10-16T02:49:14;2.47;;;1.63;;
62149;SDS011;48134;53.586;10.610;2022-10-16T02:51:46;3.65;;;1.58;;
62149;SDS011;48134;53.586;10.610;2022-10-16T02:54:19;4.70;;;1.60;;
62149;SDS011;48134;53.586;10.610;2022-10-16T02:56:52;3.95;;;1.90;;
62149;SDS011;48134;53.586;10.610;2022-10-16T02:59:21;1.70;;;1.35;;
62149;SDS011;48134;53.586;10.610;2022-10-16T03:01:54;4.68;;;1.77;;
62149;SDS011;48134;53.586;10.610;2022-10-16T03:04:27;4.05;;;1.70;;
62149;SDS011;48134;53.586;10.610;2022-10-16T03:07:00;2.75;;;1.40;;
62149;SDS011;48134;53.586;10.610;2022-10-16T03:09:33;3.08;;;1.60;;
62149;SDS011;48134;53.586;10.610;2022-10-16T03:12:05;3.95;;;1.40;;
62149;SDS011;48134;53.586;10.610;2022-10-16T03:14:40;3.55;;;1.35;;
62149;SDS011;48134;53.586;10.610;2022-10-16T03:17:12;5.28;;;1.73;;
62149;SDS011;48134;53.586;10.610;2022-10-16T03:19:43;2.95;;;1.20;;
62149;SDS011;48134;53.586;10.610;2022-10-16T03:22:10;3.08;;;1.20;;
62149;SDS011;48134;53.586;10.610;2022-10-16T03:24:43;2.65;;;1.25;;
62149;SDS011;48134;53.586;10.610;2022-10-16T03:27:16;1.55;;;1.20;;
62149;SDS011;48134;53.586;10.610;2022-10-16T03:29:50;3.53;;;1.35;;
62149;SDS011;48134;53.586;10.610;2022-10-16T03:32:18;1.33;;;1.13;;
62149;SDS011;48134;53.586;10.610;2022-10-16T03:34:51;5.03;;;1.20;;
62149;SDS011;48134;53.586;10.610;2022-10-16T03:37:25;6.60;;;1.67;;
62149;SDS011;48134;53.586;10.610;2022-10-16T03:39:58;1.60;;;1.15;;
62149;SDS011;48134;53.586;10.610;2022-10-16T03:42:31;3.55;;;1.23;;
62149;SDS011;48134;53.586;10.610;2022-10-16T03:45:06;3.88;;;1.25;;
62149;SDS011;48134;53.586;10.610;2022-10-16T03:47:34;2.08;;;1.23;;
62149;SDS011;48134;53.586;10.610;2022-10-16T03:50:07;2.65;;;1.38;;
62149;SDS011;48134;53.586;10.610;2022-10-16T03:52:39;2.08;;;1.20;;
62149;SDS011;48134;53.586;10.610;2022-10-16T03:55:12;2.78;;;1.17;;
62149;SDS011;48134;53.586;10.610;2022-10-16T03:57:45;3.25;;;1.33;;
62149;SDS011;48134;53.586;10.610;2022-10-16T04:00:19;1.92;;;1.08;;
62149;SDS011;48134;53.586;10.610;2022-10-16T04:02:52;1.45;;;1.00;;
62149;SDS011;48134;53.586;10.610;2022-10-16T04:05:25;1.58;;;1.02;;
62149;SDS011;48134;53.586;10.610;2022-10-16T04:07:57;6.35;;;1.17;;
62149;SDS011;48134;53.586;10.610;2022-10-16T04:10:25;1.92;;;1.20;;
62149;SDS011;48134;53.586;10.610;2022-10-16T04:12:58;4.18;;;1.30;;
62149;SDS011;48134;53.586;10.610;2022-10-16T04:15:27;1.52;;;1.10;;
62149;SDS011;48134;53.586;10.610;2022-10-16T04:18:00;2.53;;;1.10;;
62149;SDS011;48134;53.586;10.610;2022-10-16T04:20:28;2.80;;;1.30;;
62149;SDS011;48134;53.586;10.610;2022-10-16T04:23:01;5.07;;;1.50;;
62149;SDS011;48134;53.586;10.610;2022-10-16T04:25:34;2.67;;;1.15;;
62149;SDS011;48134;53.586;10.610;2022-10-16T04:28:07;3.80;;;1.33;;
62149;SDS011;48134;53.586;10.610;2022-10-16T04:30:41;5.38;;;1.27;;
62149;SDS011;48134;53.586;10.610;2022-10-16T04:33:13;2.22;;;1.10;;
62149;SDS011;48134;53.586;10.610;2022-10-16T04:35:46;3.10;;;1.40;;
62149;SDS011;48134;53.586;10.610;2022-10-16T04:38:19;2.55;;;1.17;;
62149;SDS011;48134;53.586;10.610;2022-10-16T04:40:52;1.45;;;0.95;;
62149;SDS011;48134;53.586;10.610;2022-10-16T04:43:25;2.38;;;1.20;;
62149;SDS011;48134;53.586;10.610;2022-10-16T04:45:54;1.63;;;1.00;;
62149;SDS011;48134;53.586;10.610;2022-10-16T04:48:27;1.70;;;1.00;;
62149;SDS011;48134;53.586;10.610;2022-10-16T04:51:00;3.88;;;1.30;;
62149;SDS011;48134;53.586;10.610;2022-10-16T04:53:33;1.25;;;1.10;;
62149;SDS011;48134;53.586;10.610;2022-10-16T04:56:06;2.92;;;1.15;;
62149;SDS011;48134;53.586;10.610;2022-10-16T04:58:33;2.20;;;1.35;;
62149;SDS011;48134;53.586;10.610;2022-10-16T05:01:07;5.13;;;1.40;;
62149;SDS011;48134;53.586;10.610;2022-10-16T05:03:35;5.93;;;1.20;;
62149;SDS011;48134;53.586;10.610;2022-10-16T05:06:08;2.45;;;1.00;;
62149;SDS011;48134;53.586;10.610;2022-10-16T05:08:41;3.63;;;1.20;;
62149;SDS011;48134;53.586;10.610;2022-10-16T05:11:14;2.72;;;1.40;;
62149;SDS011;48134;53.586;10.610;2022-10-16T05:13:46;1.10;;;1.00;;
62149;SDS011;48134;53.586;10.610;2022-10-16T05:16:20;5.07;;;1.48;;
62149;SDS011;48134;53.586;10.610;2022-10-16T05:18:53;1.60;;;1.20;;
62149;SDS011;48134;53.586;10.610;2022-10-16T05:21:26;2.33;;;1.20;;
62149;SDS011;48134;53.586;10.610;2022-10-16T05:23:54;4.13;;;1.40;;
62149;SDS011;48134;53.586;10.610;2022-10-16T05:26:27;3.58;;;1.27;;
62149;SDS011;48134;53.586;10.610;2022-10-16T05:28:54;5.88;;;1.60;;
62149;SDS011;48134;53.586;10.610;2022-10-16T05:31:24;7.57;;;1.58;;
62149;SDS011;48134;53.586;10.610;2022-10-16T05:33:57;3.67;;;1.65;;
62149;SDS011;48134;53.586;10.610;2022-10-16T05:36:30;3.42;;;1.40;;
62149;SDS011;48134;53.586;10.610;2022-10-16T05:39:03;2.13;;;1.27;;
62149;SDS011;48134;53.586;10.610;2022-10-16T05:41:36;2.30;;;1.38;;
62149;SDS011;48134;53.586;10.610;2022-10-16T05:44:09;4.35;;;1.40;;
62149;SDS011;48134;53.586;10.610;2022-10-16T05:46:43;4.82;;;1.48;;
62149;SDS011;48134;53.586;10.610;2022-10-16T05:49:11;2.83;;;1.40;;
62149;SDS011;48134;53.586;10.610;2022-10-16T05:51:43;3.35;;;1.50;;
62149;SDS011;48134;53.586;10.610;2022-10-16T05:54:16;3.95;;;1.30;;
62149;SDS011;48134;53.586;10.610;2022-10-16T05:56:49;3.35;;;1.52;;
62149;SDS011;48134;53.586;10.610;2022-10-16T05:59:22;2.83;;;1.42;;
62149;SDS011;48134;53.586;10.610;2022-10-16T06:01:56;2.25;;;1.15;;
62149;SDS011;48134;53.586;10.610;2022-10-16T06:04:28;5.55;;;1.23;;
62149;SDS011;48134;53.586;10.610;2022-10-16T06:07:01;7.55;;;1.17;;
62149;SDS011;48134;53.586;10.610;2022-10-16T06:09:34;11.52;;;1.50;;
62149;SDS011;48134;53.586;10.610;2022-10-16T06:12:07;2.88;;;1.42;;
62149;SDS011;48134;53.586;10.610;2022-10-16T06:14:40;2.05;;;1.30;;
62149;SDS011;48134;53.586;10.610;2022-10-16T06:17:14;2.95;;;1.70;;
62149;SDS011;48134;53.586;10.610;2022-10-16T06:19:42;5.80;;;1.55;;
62149;SDS011;48134;53.586;10.610;2022-10-16T06:22:10;1.50;;;1.02;;
62149;SDS011;48134;53.586;10.610;2022-10-16T06:24:37;2.65;;;1.40;;
62149;SDS011;48134;53.586;10.610;2022-10-16T06:27:05;3.28;;;1.30;;
62149;SDS011;48134;53.586;10.610;2022-10-16T06:29:33;4.18;;;1.80;;
62149;SDS011;48134;53.586;10.610;2022-10-16T06:32:06;4.75;;;1.40;;
62149;SDS011;48134;53.586;10.610;2022-10-16T06:34:35;2.75;;;1.30;;
62149;SDS011;48134;53.586;10.610;2022-10-16T06:37:02;3.22;;;1.33;;
62149;SDS011;48134;53.586;10.610;2022-10-16T06:39:35;3.20;;;1.50;;
62149;SDS011;48134;53.586;10.610;2022-10-16T06:42:08;4.22;;;1.77;;
62149;SDS011;48134;53.586;10.610;2022-10-16T06:44:36;3.45;;;1.25;;
62149;SDS011;48134;53.586;10.610;2022-10-16T06:47:03;2.72;;;1.35;;
62149;SDS011;48134;53.586;10.610;2022-10-16T06:49:37;2.13;;;1.20;;
62149;SDS011;48134;53.586;10.610;2022-10-16T06:52:10;4.53;;;1.23;;
62149;SDS011;48134;53.586;10.610;2022-10-16T06:54:38;4.25;;;1.60;;
62149;SDS011;48134;53.586;10.610;2022-10-16T06:57:11;4.65;;;1.23;;
62149;SDS011;48134;53.586;10.610;2022-10-16T06:59:44;1.95;;;1.27;;
62149;SDS011;48134;53.586;10.610;2022-10-16T07:02:16;2.03;;;1.10;;
62149;SDS011;48134;53.586;10.610;2022-10-16T07:04:51;2.05;;;1.30;;
62149;SDS011;48134;53.586;10.610;2022-10-16T07:07:19;1.92;;;1.30;;
62149;SDS011;48134;53.586;10.610;2022-10-16T07:09:52;2.28;;;1.40;;
62149;SDS011;48134;53.586;10.610;2022-10-16T07:12:24;8.30;;;1.50;;
62149;SDS011;48134;53.586;10.610;2022-10-16T07:14:58;4.75;;;1.48;;
62149;SDS011;48134;53.586;10.610;2022-10-16T07:17:30;7.43;;;1.48;;
62149;SDS011;48134;53.586;10.610;2022-10-16T07:20:05;4.30;;;1.55;;
62149;SDS011;48134;53.586;10.610;2022-10-16T07:22:38;8.25;;;1.98;;
62149;SDS011;48134;53.586;10.610;2022-10-16T07:25:11;1.98;;;1.20;;
62149;SDS011;48134;53.586;10.610;2022-10-16T07:27:44;3.05;;;1.70;;
62149;SDS011;48134;53.586;10.610;2022-10-16T07:30:16;7.57;;;2.15;;
62149;SDS011;48134;53.586;10.610;2022-10-16T07:32:44;2.90;;;1.60;;
62149;SDS011;48134;53.586;10.610;2022-10-16T07:35:13;3.72;;;1.80;;
62149;SDS011;48134;53.586;10.610;2022-10-16T07:37:46;4.72;;;1.88;;
62149;SDS011;48134;53.586;10.610;2022-10-16T07:40:19;3.65;;;1.70;;
62149;SDS011;48134;53.586;10.610;2022-10-16T07:42:52;4.03;;;1.73;;
62149;SDS011;48134;53.586;10.610;2022-10-16T07:45:25;3.85;;;1.80;;
62149;SDS011;48134;53.586;10.610;2022-10-16T07:47:52;3.80;;;1.65;;
62149;SDS011;48134;53.586;10.610;2022-10-16T07:50:22;3.17;;;1.45;;
62149;SDS011;48134;53.586;10.610;2022-10-16T07:52:49;3.70;;;1.70;;
62149;SDS011;48134;53.586;10.610;2022-10-16T07:55:22;3.60;;;1.70;;
62149;SDS011;48134;53.586;10.610;2022-10-16T07:57:55;4.00;;;1.52;;
62149;SDS011;48134;53.586;10.610;2022-10-16T08:00:23;2.10;;;1.48;;
62149;SDS011;48134;53.586;10.610;2022-10-16T08:02:56;4.68;;;1.50;;
62149;SDS011;48134;53.586;10.610;2022-10-16T08:05:28;3.55;;;1.70;;
62149;SDS011;48134;53.586;10.610;2022-10-16T08:07:56;1.83;;;1.40;;
62149;SDS011;48134;53.586;10.610;2022-10-16T08:10:24;3.88;;;1.65;;
62149;SDS011;48134;53.586;10.610;2022-10-16T08:12:57;3.88;;;1.55;;
62149;SDS011;48134;53.586;10.610;2022-10-16T08:15:26;4.20;;;1.63;;
62149;SDS011;48134;53.586;10.610;2022-10-16T08:17:59;4.07;;;1.73;;
62149;SDS011;48134;53.586;10.610;2022-10-16T08:20:34;2.78;;;1.52;;
62149;SDS011;48134;53.586;10.610;2022-10-16T08:23:07;3.03;;;1.60;;
62149;SDS011;48134;53.586;10.610;2022-10-16T08:25:39;1.60;;;1.20;;
62149;SDS011;48134;53.586;10.610;2022-10-16T08:28:12;4.80;;;1.90;;
62149;SDS011;48134;53.586;10.610;2022-10-16T08:30:45;2.30;;;1.40;;
62149;SDS011;48134;53.586;10.610;2022-10-16T08:33:18;3.67;;;1.50;;
62149;SDS011;48134;53.586;10.610;2022-10-16T08:35:52;2.85;;;1.60;;
62149;SDS011;48134;53.586;10.610;2022-10-16T08:38:20;2.70;;;1.60;;
62149;SDS011;48134;53.586;10.610;2022-10-16T08:40:53;2.95;;;1.30;;
62149;SDS011;48134;53.586;10.610;2022-10-16T08:43:27;1.95;;;1.33;;
62149;SDS011;48134;53.586;10.610;2022-10-16T08:48:54;5.78;;;1.25;;
62149;SDS011;48134;53.586;10.610;2022-10-16T08:51:29;2.55;;;1.33;;
62149;SDS011;48134;53.586;10.610;2022-10-16T08:54:04;5.22;;;1.70;;
62149;SDS011;48134;53.586;10.610;2022-10-16T08:56:32;4.03;;;1.40;;
62149;SDS011;48134;53.586;10.610;2022-10-16T08:58:59;5.47;;;1.30;;
62149;SDS011;48134;53.586;10.610;2022-10-16T09:01:35;1.90;;;1.35;;
62149;SDS011;48134;53.586;10.610;2022-10-16T09:04:17;3.42;;;1.10;;
62149;SDS011;48134;53.586;10.610;2022-10-16T09:06:56;6.35;;;1.65;;
62149;SDS011;48134;53.586;10.610;2022-10-16T09:09:43;4.38;;;1.30;;
62149;SDS011;48134;53.586;10.610;2022-10-16T09:12:21;1.33;;;1.17;;
62149;SDS011;48134;53.586;10.610;2022-10-16T09:14:58;1.85;;;1.20;;
62149;SDS011;48134;53.586;10.610;2022-10-16T09:17:36;1.70;;;1.20;;
62149;SDS011;48134;53.586;10.610;2022-10-16T09:20:11;2.38;;;1.40;;
62149;SDS011;48134;53.586;10.610;2022-10-16T09:22:42;2.92;;;1.00;;
62149;SDS011;48134;53.586;10.610;2022-10-16T09:25:16;3.08;;;1.30;;
62149;SDS011;48134;53.586;10.610;2022-10-16T09:27:49;1.70;;;1.20;;
62149;SDS011;48134;53.586;10.610;2022-10-16T09:30:26;3.70;;;1.20;;
62149;SDS011;48134;53.586;10.610;2022-10-16T09:33:00;2.63;;;1.50;;
62149;SDS011;48134;53.586;10.610;2022-10-16T09:35:35;2.22;;;1.23;;
62149;SDS011;48134;53.586;10.610;2022-10-16T09:38:10;2.20;;;1.13;;
62149;SDS011;48134;53.586;10.610;2022-10-16T09:40:52;2.65;;;1.23;;
62149;SDS011;48134;53.586;10.610;2022-10-16T09:43:22;5.13;;;1.10;;
62149;SDS011;48134;53.586;10.610;2022-10-16T09:45:54;2.75;;;1.17;;
62149;SDS011;48134;53.586;10.610;2022-10-16T09:48:28;5.55;;;1.65;;
62149;SDS011;48134;53.586;10.610;2022-10-16T09:51:05;2.63;;;1.33;;
62149;SDS011;48134;53.586;10.610;2022-10-16T09:53:39;1.10;;;1.00;;
62149;SDS011;48134;53.586;10.610;2022-10-16T09:56:20;2.28;;;1.25;;
62149;SDS011;48134;53.586;10.610;2022-10-16T09:58:49;2.00;;;1.20;;
62149;SDS011;48134;53.586;10.610;2022-10-16T10:01:17;4.10;;;1.30;;
62149;SDS011;48134;53.586;10.610;2022-10-16T10:03:55;1.85;;;1.10;;
62149;SDS011;48134;53.586;10.610;2022-10-16T10:06:33;2.33;;;1.38;;
62149;SDS011;48134;53.586;10.610;2022-10-16T10:09:06;2.70;;;1.15;;
62149;SDS011;48134;53.586;10.610;2022-10-16T10:11:51;4.03;;;1.23;;
62149;SDS011;48134;53.586;10.610;2022-10-16T10:14:25;4.07;;;1.10;;
62149;SDS011;48134;53.586;10.610;2022-10-16T10:17:02;2.17;;;1.20;;
62149;SDS011;48134;53.586;10.610;2022-10-16T10:19:37;3.38;;;1.08;;
62149;SDS011;48134;53.586;10.610;2022-10-16T10:22:13;2.33;;;1.00;;
62149;SDS011;48134;53.586;10.610;2022-10-16T10:24:46;2.25;;;0.95;;
62149;SDS011;48134;53.586;10.610;2022-10-16T10:27:29;6.13;;;1.10;;
62149;SDS011;48134;53.586;10.610;2022-10-16T10:30:06;1.67;;;0.82;;
62149;SDS011;48134;53.586;10.610;2022-10-16T10:32:45;5.53;;;1.60;;
62149;SDS011;48134;53.586;10.610;2022-10-16T10:35:18;3.38;;;1.17;;
62149;SDS011;48134;53.586;10.610;2022-10-16T10:37:57;4.07;;;0.90;;
62149;SDS011;48134;53.586;10.610;2022-10-16T10:40:43;3.67;;;0.90;;
62149;SDS011;48134;53.586;10.610;2022-10-16T10:43:27;3.95;;;1.02;;
62149;SDS011;48134;53.586;10.610;2022-10-16T10:46:03;3.97;;;0.90;;
62149;SDS011;48134;53.586;10.610;2022-10-16T10:51:28;2.17;;;0.90;;
62149;SDS011;48134;53.586;10.610;2022-10-16T10:54:04;2.60;;;1.08;;
62149;SDS011;48134;53.586;10.610;2022-10-16T10:56:42;2.95;;;0.88;;
62149;SDS011;48134;53.586;10.610;2022-10-16T11:04:54;2.90;;;0.80;;
62149;SDS011;48134;53.586;10.610;2022-10-16T11:07:30;1.08;;;0.80;;
62149;SDS011;48134;53.586;10.610;2022-10-16T11:10:02;1.20;;;0.90;;
62149;SDS011;48134;53.586;10.610;2022-10-16T11:12:38;1.17;;;0.80;;
62149;SDS011;48134;53.586;10.610;2022-10-16T11:15:11;2.58;;;0.90;;
62149;SDS011;48134;53.586;10.610;2022-10-16T11:17:46;3.75;;;1.10;;
62149;SDS011;48134;53.586;10.610;2022-10-16T11:20:21;2.67;;;0.80;;
62149;SDS011;48134;53.586;10.610;2022-10-16T11:22:56;2.65;;;0.93;;
62149;SDS011;48134;53.586;10.610;2022-10-16T11:25:31;1.92;;;0.90;;
62149;SDS011;48134;53.586;10.610;2022-10-16T11:28:07;2.92;;;0.70;;
62149;SDS011;48134;53.586;10.610;2022-10-16T11:30:44;1.85;;;0.77;;
62149;SDS011;48134;53.586;10.610;2022-10-16T11:33:22;1.85;;;0.60;;
62149;SDS011;48134;53.586;10.610;2022-10-16T11:35:57;5.10;;;0.90;;
62149;SDS011;48134;53.586;10.610;2022-10-16T11:38:34;1.50;;;0.70;;
62149;SDS011;48134;53.586;10.610;2022-10-16T11:41:10;5.68;;;0.73;;
62149;SDS011;48134;53.586;10.610;2022-10-16T11:43:48;1.92;;;0.77;;
62149;SDS011;48134;53.586;10.610;2022-10-16T11:46:23;4.00;;;0.70;;
62149;SDS011;48134;53.586;10.610;2022-10-16T11:48:52;2.28;;;0.68;;
62149;SDS011;48134;53.586;10.610;2022-10-16T11:51:24;2.08;;;0.60;;
62149;SDS011;48134;53.586;10.610;2022-10-16T11:54:01;3.42;;;0.73;;
62149;SDS011;48134;53.586;10.610;2022-10-16T11:56:32;1.25;;;0.60;;
62149;SDS011;48134;53.586;10.610;2022-10-16T11:59:05;5.57;;;0.90;;
62149;SDS011;48134;53.586;10.610;2022-10-16T12:01:40;1.77;;;0.73;;
62149;SDS011;48134;53.586;10.610;2022-10-16T12:04:16;2.78;;;0.95;;
62149;SDS011;48134;53.586;10.610;2022-10-16T12:06:47;4.00;;;0.95;;
62149;SDS011;48134;53.586;10.610;2022-10-16T12:09:22;2.17;;;0.80;;
62149;SDS011;48134;53.586;10.610;2022-10-16T12:11:56;5.25;;;0.90;;
62149;SDS011;48134;53.586;10.610;2022-10-16T12:14:36;4.20;;;1.05;;
62149;SDS011;48134;53.586;10.610;2022-10-16T12:17:24;4.82;;;0.90;;
62149;SDS011;48134;53.586;10.610;2022-10-16T12:19:59;3.47;;;0.90;;
62149;SDS011;48134;53.586;10.610;2022-10-16T12:22:32;3.78;;;0.70;;
62149;SDS011;48134;53.586;10.610;2022-10-16T12:25:00;6.95;;;1.00;;
62149;SDS011;48134;53.586;10.610;2022-10-16T12:27:28;2.55;;;0.70;;
62149;SDS011;48134;53.586;10.610;2022-10-16T12:30:03;3.05;;;0.60;;
62149;SDS011;48134;53.586;10.610;2022-10-16T12:32:38;3.03;;;0.90;;
62149;SDS011;48134;53.586;10.610;2022-10-16T12:35:17;5.75;;;0.80;;
62149;SDS011;48134;53.586;10.610;2022-10-16T12:37:51;1.98;;;0.93;;
62149;SDS011;48134;53.586;10.610;2022-10-16T12:40:26;3.17;;;0.88;;
62149;SDS011;48134;53.586;10.610;2022-10-16T12:43:10;4.93;;;0.70;;
62149;SDS011;48134;53.586;10.610;2022-10-16T12:45:44;6.45;;;1.33;;
62149;SDS011;48134;53.586;10.610;2022-10-16T12:48:19;2.60;;;0.80;;
62149;SDS011;48134;53.586;10.610;2022-10-16T12:50:52;3.60;;;0.90;;
62149;SDS011;48134;53.586;10.610;2022-10-16T12:53:21;1.80;;;0.90;;
62149;SDS011;48134;53.586;10.610;2022-10-16T12:55:57;5.70;;;0.80;;
62149;SDS011;48134;53.586;10.610;2022-10-16T12:58:40;8.43;;;1.02;;
62149;SDS011;48134;53.586;10.610;2022-10-16T13:01:16;7.88;;;1.10;;
62149;SDS011;48134;53.586;10.610;2022-10-16T13:03:58;2.58;;;0.98;;
62149;SDS011;48134;53.586;10.610;2022-10-16T13:06:30;4.32;;;0.95;;
62149;SDS011;48134;53.586;10.610;2022-10-16T13:09:12;4.32;;;0.90;;
62149;SDS011;48134;53.586;10.610;2022-10-16T13:17:37;6.55;;;0.88;;
62149;SDS011;48134;53.586;10.610;2022-10-16T13:20:11;4.60;;;1.00;;
62149;SDS011;48134;53.586;10.610;2022-10-16T13:22:48;2.65;;;0.93;;
62149;SDS011;48134;53.586;10.610;2022-10-16T13:25:26;3.05;;;1.10;;
62149;SDS011;48134;53.586;10.610;2022-10-16T13:28:05;2.70;;;1.05;;
62149;SDS011;48134;53.586;10.610;2022-10-16T13:30:34;4.70;;;1.20;;
62149;SDS011;48134;53.586;10.610;2022-10-16T13:33:06;5.85;;;1.00;;
62149;SDS011;48134;53.586;10.610;2022-10-16T13:35:35;3.50;;;0.73;;
62149;SDS011;48134;53.586;10.610;2022-10-16T13:38:11;3.42;;;1.13;;
62149;SDS011;48134;53.586;10.610;2022-10-16T13:40:49;9.00;;;1.17;;
62149;SDS011;48134;53.586;10.610;2022-10-16T13:43:17;2.63;;;1.05;;
62149;SDS011;48134;53.586;10.610;2022-10-16T13:45:54;1.70;;;0.80;;
62149;SDS011;48134;53.586;10.610;2022-10-16T13:48:28;3.33;;;0.80;;
62149;SDS011;48134;53.586;10.610;2022-10-16T13:51:02;3.65;;;1.02;;
62149;SDS011;48134;53.586;10.610;2022-10-16T13:53:35;5.13;;;1.00;;
62149;SDS011;48134;53.586;10.610;2022-10-16T13:56:10;1.30;;;0.80;;
62149;SDS011;48134;53.586;10.610;2022-10-16T13:58:43;1.88;;;0.82;;
62149;SDS011;48134;53.586;10.610;2022-10-16T14:01:18;3.40;;;1.10;;
62149;SDS011;48134;53.586;10.610;2022-10-16T14:03:53;4.03;;;1.20;;
62149;SDS011;48134;53.586;10.610;2022-10-16T14:06:28;5.57;;;1.45;;
62149;SDS011;48134;53.586;10.610;2022-10-16T14:08:59;5.68;;;1.30;;
62149;SDS011;48134;53.586;10.610;2022-10-16T14:11:33;2.42;;;0.80;;
62149;SDS011;48134;53.586;10.610;2022-10-16T14:14:08;5.18;;;1.30;;
62149;SDS011;48134;53.586;10.610;2022-10-16T14:16:42;5.03;;;0.93;;
62149;SDS011;48134;53.586;10.610;2022-10-16T14:19:20;6.40;;;1.25;;
62149;SDS011;48134;53.586;10.610;2022-10-16T14:24:25;2.38;;;1.10;;
62149;SDS011;48134;53.586;10.610;2022-10-16T14:29:31;2.80;;;1.02;;
62149;SDS011;48134;53.586;10.610;2022-10-16T14:31:59;3.42;;;0.90;;
62149;SDS011;48134;53.586;10.610;2022-10-16T14:34:34;3.08;;;0.93;;
62149;SDS011;48134;53.586;10.610;2022-10-16T14:37:08;8.65;;;1.02;;
62149;SDS011;48134;53.586;10.610;2022-10-16T14:39:41;7.47;;;1.00;;
62149;SDS011;48134;53.586;10.610;2022-10-16T14:42:14;4.90;;;1.00;;
62149;SDS011;48134;53.586;10.610;2022-10-16T14:44:48;2.55;;;1.00;;
62149;SDS011;48134;53.586;10.610;2022-10-16T14:47:24;2.45;;;0.90;;
62149;SDS011;48134;53.586;10.610;2022-10-16T14:49:54;12.45;;;1.20;;
62149;SDS011;48134;53.586;10.610;2022-10-16T14:52:30;5.30;;;1.33;;
62149;SDS011;48134;53.586;10.610;2022-10-16T14:55:03;2.90;;;1.00;;
62149;SDS011;48134;53.586;10.610;2022-10-16T14:57:31;5.70;;;1.10;;
62149;SDS011;48134;53.586;10.610;2022-10-16T15:00:01;6.35;;;1.20;;
62149;SDS011;48134;53.586;10.610;2022-10-16T15:02:30;3.35;;;1.00;;
62149;SDS011;48134;53.586;10.610;2022-10-16T15:05:10;5.75;;;1.30;;
62149;SDS011;48134;53.586;10.610;2022-10-16T15:07:43;5.13;;;1.23;;
62149;SDS011;48134;53.586;10.610;2022-10-16T15:10:12;4.28;;;1.50;;
62149;SDS011;48134;53.586;10.610;2022-10-16T15:12:45;3.53;;;1.25;;
62149;SDS011;48134;53.586;10.610;2022-10-16T15:15:30;6.05;;;1.20;;
62149;SDS011;48134;53.586;10.610;2022-10-16T15:18:04;5.80;;;1.02;;
62149;SDS011;48134;53.586;10.610;2022-10-16T15:20:34;6.20;;;1.85;;
62149;SDS011;48134;53.586;10.610;2022-10-16T15:23:03;3.05;;;1.05;;
62149;SDS011;48134;53.586;10.610;2022-10-16T15:25:34;5.72;;;1.40;;
62149;SDS011;48134;53.586;10.610;2022-10-16T15:28:08;2.33;;;1.02;;
62149;SDS011;48134;53.586;10.610;2022-10-16T15:30:41;2.90;;;1.15;;
62149;SDS011;48134;53.586;10.610;2022-10-16T15:33:17;4.00;;;1.67;;
62149;SDS011;48134;53.586;10.610;2022-10-16T15:35:51;4.53;;;1.42;;